Time;durP1;ratioP1;P1;durP2;ratioP2;P2;SDS_P1;SDS_P2;PMS_P1;PMS_P2;Temp;Humidity;BMP_temperature;BMP_pressure;BME280_temperature;BME280_humidity;BME280_pressure;Samples;Min_cycle;Max_cycle;Signal;HPM_P1;HPM_P2
2021/12/03 00:01:28;;;;;;;6.97;2.00;;;0.80;99.90;;;;;;4413704;28;657618;-72
2021/12/03 00:04:16;;;;;;;8.03;2.37;;;0.70;99.90;;;;;;4400371;28;657943;-71
2021/12/03 00:07:04;;;;;;;6.97;2.07;;;0.70;99.90;;;;;;4421016;28;657935;-70
2021/12/03 00:09:53;;;;;;;7.57;2.40;;;0.70;99.90;;;;;;4404613;28;657516;-71
2021/12/03 00:12:41;;;;;;;6.10;1.97;;;0.70;99.90;;;;;;4425609;28;657532;-71
2021/12/03 00:15:28;;;;;;;8.57;2.03;;;0.70;99.90;;;;;;4441213;28;658527;-70
2021/12/03 00:18:16;;;;;;;5.40;1.87;;;0.70;99.90;;;;;;4423388;28;657520;-71
2021/12/03 00:21:07;;;;;;;6.67;2.20;;;0.60;1.00;;;;;;4439157;28;658210;-70
2021/12/03 00:23:54;;;;;;;9.13;1.97;;;0.60;1.00;;;;;;4413796;28;656491;-70
2021/12/03 00:26:43;;;;;;;4.37;1.97;;;0.50;1.00;;;;;;4418642;28;656638;-71
2021/12/03 00:29:31;;;;;;;7.10;2.00;;;0.50;1.00;;;;;;4420768;28;658344;-71
2021/12/03 00:32:19;;;;;;;6.73;2.07;;;0.60;1.00;;;;;;4437286;28;657222;-71
2021/12/03 00:35:08;;;;;;;7.67;2.60;;;0.50;1.00;;;;;;4422555;28;656380;-70
2021/12/03 00:37:56;;;;;;;8.23;2.37;;;0.50;1.00;;;;;;4438433;28;656793;-72
2021/12/03 00:40:43;;;;;;;9.43;2.60;;;0.40;1.00;;;;;;4443533;28;657717;-71
2021/12/03 00:43:33;;;;;;;7.23;2.53;;;0.50;1.00;;;;;;4425421;28;657039;-71
2021/12/03 00:46:21;;;;;;;8.68;2.60;;;0.50;1.00;;;;;;4427302;28;656930;-70
2021/12/03 00:49:09;;;;;;;9.20;2.50;;;0.40;1.00;;;;;;4441444;28;657301;-70
2021/12/03 00:51:56;;;;;;;8.07;2.40;;;0.50;1.00;;;;;;4423377;28;656703;-71
2021/12/03 00:54:44;;;;;;;7.97;2.37;;;0.40;1.00;;;;;;4439149;28;656499;-70
2021/12/03 00:57:32;;;;;;;7.87;2.37;;;0.40;1.00;;;;;;4413697;28;656707;-70
2021/12/03 01:00:23;;;;;;;10.93;2.42;;;0.40;1.00;;;;;;4438793;28;656246;-71
2021/12/03 01:03:11;;;;;;;9.38;2.22;;;0.40;1.00;;;;;;4401495;28;658524;-71
2021/12/03 01:05:58;;;;;;;5.57;2.10;;;0.40;1.00;;;;;;4449071;28;658062;-71
2021/12/03 01:08:46;;;;;;;4.27;1.80;;;0.40;31.20;;;;;;4424412;28;656917;-71
2021/12/03 01:11:33;;;;;;;5.30;1.90;;;0.30;24.50;;;;;;4429795;28;658010;-70
2021/12/03 01:14:21;;;;;;;6.03;2.00;;;0.30;57.10;;;;;;4409345;28;657756;-70
2021/12/03 01:17:10;;;;;;;9.73;2.30;;;0.30;99.90;;;;;;4424962;28;658650;-70
2021/12/03 01:19:59;;;;;;;5.53;2.10;;;0.30;99.90;;;;;;4404456;28;657776;-70
2021/12/03 01:22:47;;;;;;;7.53;2.08;;;0.20;99.90;;;;;;4401468;28;657859;-71
2021/12/03 01:25:36;;;;;;;3.07;1.57;;;0.10;99.90;;;;;;4419283;28;657146;-72
2021/12/03 01:28:25;;;;;;;5.13;2.00;;;0.20;99.90;;;;;;4422621;28;659239;-70
2021/12/03 01:31:13;;;;;;;4.57;2.00;;;0.20;99.90;;;;;;4397846;28;658407;-71
2021/12/03 01:34:03;;;;;;;7.07;1.70;;;0.20;99.90;;;;;;4403639;28;657694;-72
2021/12/03 01:36:51;;;;;;;5.20;1.80;;;0.20;99.90;;;;;;4417049;28;657702;-71
2021/12/03 01:39:39;;;;;;;7.60;2.53;;;0.20;99.90;;;;;;4423447;28;658127;-70
2021/12/03 01:42:26;;;;;;;4.93;2.00;;;0.20;99.90;;;;;;4404002;28;658348;-70
2021/12/03 01:45:15;;;;;;;4.80;2.03;;;0.20;99.90;;;;;;4427937;28;657899;-70
2021/12/03 01:48:03;;;;;;;5.87;2.07;;;0.20;99.90;;;;;;4407714;28;659079;-70
2021/12/03 01:50:52;;;;;;;9.13;2.60;;;0.20;99.90;;;;;;4409503;28;657137;-71
2021/12/03 01:53:40;;;;;;;6.97;2.33;;;0.20;99.90;;;;;;4418960;28;657899;-71
2021/12/03 01:56:27;;;;;;;10.13;2.70;;;0.20;99.90;;;;;;4403493;28;657947;-71
2021/12/03 01:59:16;;;;;;;9.27;2.80;;;0.10;99.90;;;;;;4418476;28;658832;-71
2021/12/03 02:02:04;;;;;;;9.63;3.10;;;0.10;99.90;;;;;;4421602;28;659139;-70
2021/12/03 02:04:51;;;;;;;6.67;2.20;;;0.10;99.90;;;;;;4406094;28;657517;-71
2021/12/03 02:07:41;;;;;;;7.37;2.90;;;0.10;99.90;;;;;;4428210;28;658009;-70
2021/12/03 02:10:28;;;;;;;7.70;2.47;;;0.10;99.90;;;;;;4404056;28;657911;-70
2021/12/03 02:13:16;;;;;;;4.87;2.10;;;0.10;99.90;;;;;;4406530;28;658916;-70
2021/12/03 02:16:04;;;;;;;6.20;2.63;;;0.10;99.90;;;;;;4422720;28;660139;-70
2021/12/03 02:18:52;;;;;;;6.73;2.23;;;0.00;99.90;;;;;;4397049;28;657304;-70
2021/12/03 02:21:41;;;;;;;8.10;2.67;;;0.00;99.90;;;;;;4423235;28;657300;-71
2021/12/03 02:24:28;;;;;;;5.73;2.50;;;0.00;99.90;;;;;;4399758;28;658254;-71
2021/12/03 02:27:16;;;;;;;7.87;2.50;;;-0.10;99.90;;;;;;4402231;28;658871;-71
2021/12/03 02:30:04;;;;;;;8.47;2.77;;;-0.10;99.90;;;;;;4424097;28;658787;-71
2021/12/03 02:32:52;;;;;;;6.00;2.27;;;-0.10;99.90;;;;;;4400467;28;658691;-71
2021/12/03 02:35:40;;;;;;;8.10;2.47;;;-0.10;99.90;;;;;;4418596;28;658901;-70
2021/12/03 02:38:29;;;;;;;6.87;2.00;;;-0.10;99.90;;;;;;4392603;28;659088;-70
2021/12/03 02:41:17;;;;;;;12.20;1.97;;;-0.10;99.90;;;;;;4405527;28;659096;-70
2021/12/03 02:44:05;;;;;;;4.55;1.83;;;-0.10;99.90;;;;;;4424416;28;660606;-70
2021/12/03 02:46:53;;;;;;;5.17;1.70;;;-0.20;99.90;;;;;;4394006;28;659140;-69
2021/12/03 02:49:41;;;;;;;7.05;1.85;;;-0.20;99.90;;;;;;4406286;28;659037;-71
2021/12/03 02:52:29;;;;;;;6.03;2.10;;;-0.20;99.90;;;;;;4415110;28;659087;-70
2021/12/03 02:55:18;;;;;;;6.20;2.10;;;-0.20;99.90;;;;;;4401367;28;659126;-71
2021/12/03 02:58:05;;;;;;;7.93;2.13;;;-0.30;99.90;;;;;;4396669;28;659294;-71
2021/12/03 03:00:53;;;;;;;6.33;1.97;;;-0.30;99.90;;;;;;4421780;28;660280;-70
2021/12/03 03:03:41;;;;;;;5.30;2.17;;;-0.30;99.90;;;;;;4401866;28;659113;-70
2021/12/03 03:06:28;;;;;;;8.68;2.20;;;-0.30;99.90;;;;;;4426285;28;660198;-70
2021/12/03 03:09:16;;;;;;;6.80;2.37;;;-0.40;99.90;;;;;;4395340;28;659504;-71
2021/12/03 03:12:05;;;;;;;4.23;1.57;;;-0.50;99.90;;;;;;4431300;28;658995;-69
2021/12/03 03:14:55;;;;;;;3.37;1.43;;;-0.50;99.90;;;;;;4418160;28;658658;-70
2021/12/03 03:17:43;;;;;;;7.40;1.80;;;-0.40;99.90;;;;;;4415337;28;659414;-70
2021/12/03 03:20:32;;;;;;;7.40;1.70;;;-0.50;99.90;;;;;;4427953;28;659279;-70
2021/12/03 03:23:22;;;;;;;6.10;1.97;;;-0.50;99.90;;;;;;4430044;28;658896;-71
2021/12/03 03:26:11;;;;;;;6.47;2.13;;;-0.50;1.00;;;;;;4433918;28;658063;-70
2021/12/03 03:29:02;;;;;;;8.83;2.50;;;-0.50;1.00;;;;;;4419933;28;658301;-71
2021/12/03 03:31:52;;;;;;;5.07;2.00;;;-0.50;1.00;;;;;;4417655;28;658279;-70
2021/12/03 03:34:41;;;;;;;6.23;2.13;;;-0.50;1.00;;;;;;4411974;28;657634;-70
2021/12/03 03:37:30;;;;;;;8.93;2.13;;;-0.50;1.00;;;;;;4417143;28;659197;-70
2021/12/03 03:40:20;;;;;;;6.63;2.10;;;-0.50;1.00;;;;;;4407483;28;658480;-70
2021/12/03 03:43:10;;;;;;;4.90;2.30;;;-0.50;1.00;;;;;;4423608;28;658136;-71
2021/12/03 03:45:59;;;;;;;6.33;2.40;;;-0.50;1.00;;;;;;4413367;28;658215;-70
2021/12/03 03:48:48;;;;;;;5.17;2.07;;;-0.50;1.00;;;;;;4414612;28;657983;-71
2021/12/03 03:51:36;;;;;;;4.97;2.20;;;-0.40;1.00;;;;;;4414970;28;657734;-70
2021/12/03 03:54:23;;;;;;;9.13;2.67;;;-0.50;1.00;;;;;;4440722;28;657530;-70
2021/12/03 03:57:11;;;;;;;5.53;2.07;;;-0.60;1.00;;;;;;4417567;28;658019;-70
2021/12/03 03:59:59;;;;;;;3.33;2.00;;;-0.50;1.00;;;;;;4437974;28;657746;-70
2021/12/03 04:02:50;;;;;;;10.67;2.63;;;-0.50;1.00;;;;;;4422489;28;658486;-69
2021/12/03 04:05:39;;;;;;;4.47;1.30;;;-0.50;1.00;;;;;;4412604;28;659844;-70
2021/12/03 04:08:29;;;;;;;12.63;2.77;;;-0.50;1.00;;;;;;4418953;28;657472;-71
2021/12/03 04:11:20;;;;;;;5.07;2.05;;;-0.50;1.00;;;;;;4417151;28;660078;-70
2021/12/03 04:14:09;;;;;;;5.57;1.97;;;-0.50;1.00;;;;;;4408191;28;658849;-70
2021/12/03 04:16:58;;;;;;;5.17;2.20;;;-0.50;1.00;;;;;;4418324;28;657638;-70
2021/12/03 04:19:48;;;;;;;3.73;1.80;;;-0.50;1.00;;;;;;4421609;28;657569;-70
2021/12/03 04:22:36;;;;;;;6.97;2.90;;;-0.50;1.00;;;;;;4420127;28;657476;-70
2021/12/03 04:25:25;;;;;;;7.53;2.50;;;-0.50;1.00;;;;;;4436711;28;657785;-70
2021/12/03 04:28:16;;;;;;;6.33;2.37;;;-0.50;1.00;;;;;;4415309;28;657762;-70
2021/12/03 04:31:06;;;;;;;6.83;2.57;;;-0.50;1.00;;;;;;4414613;28;658785;-70
2021/12/03 04:33:54;;;;;;;6.13;2.30;;;-0.60;1.00;;;;;;4415593;28;658183;-69
2021/12/03 04:36:43;;;;;;;4.53;2.43;;;-0.60;1.00;;;;;;4416484;28;657655;-70
2021/12/03 04:39:31;;;;;;;6.27;2.17;;;-0.60;1.00;;;;;;4418257;28;657303;-70
2021/12/03 04:42:19;;;;;;;4.60;2.00;;;-0.60;1.00;;;;;;4438396;28;657982;-70
2021/12/03 04:45:08;;;;;;;6.47;2.53;;;-0.60;1.00;;;;;;4420077;28;657657;-70
2021/12/03 04:47:56;;;;;;;6.03;2.00;;;-0.70;1.00;;;;;;4417591;28;658010;-70
2021/12/03 04:50:44;;;;;;;5.50;2.53;;;-0.60;1.00;;;;;;4439507;28;658583;-70
2021/12/03 04:53:33;;;;;;;6.70;2.57;;;-0.60;1.00;;;;;;4419669;28;658768;-70
2021/12/03 04:56:21;;;;;;;9.83;2.90;;;-0.60;1.00;;;;;;4421865;28;657841;-71
2021/12/03 04:59:08;;;;;;;7.77;2.53;;;-0.60;1.00;;;;;;4437557;28;657834;-70
2021/12/03 05:01:58;;;;;;;10.13;3.17;;;-0.50;1.00;;;;;;4420205;28;658593;-70
2021/12/03 05:04:47;;;;;;;9.90;2.60;;;-0.60;1.00;;;;;;4421356;28;658476;-71
2021/12/03 05:07:54;;;;;;;10.67;3.10;;;-0.70;1.00;;;;;;4434028;28;657803;-70
2021/12/03 05:10:43;;;;;;;7.23;2.77;;;-0.70;1.00;;;;;;4417892;28;659079;-70
2021/12/03 05:13:30;;;;;;;9.33;3.40;;;-0.70;1.00;;;;;;4912680;27;131530;-69
2021/12/03 05:16:18;;;;;;;11.33;3.27;;;-0.70;1.00;;;;;;4387378;28;650118;-70
2021/12/03 05:19:06;;;;;;;7.57;2.85;;;-0.70;1.00;;;;;;4398457;28;650688;-71
2021/12/03 05:21:53;;;;;;;6.77;2.87;;;-0.60;1.00;;;;;;4456378;28;649814;-70
2021/12/03 05:24:45;;;;;;;7.27;3.47;;;-0.60;1.00;;;;;;4437685;28;649359;-70
2021/12/03 05:27:32;;;;;;;10.60;3.40;;;-0.60;1.00;;;;;;4439807;28;650174;-70
2021/12/03 05:30:22;;;;;;;7.40;3.17;;;-0.60;1.00;;;;;;4453472;28;652895;-72
2021/12/03 05:33:10;;;;;;;8.87;4.03;;;-0.60;1.00;;;;;;4453685;28;650692;-70
2021/12/03 05:35:57;;;;;;;7.97;3.40;;;-0.60;1.00;;;;;;4430714;28;651785;-70
2021/12/03 05:38:45;;;;;;;11.03;3.27;;;-0.60;1.00;;;;;;4459717;28;650114;-70
2021/12/03 05:41:33;;;;;;;8.57;2.93;;;-0.60;1.00;;;;;;4428524;28;653624;-69
2021/12/03 05:44:21;;;;;;;7.43;3.30;;;-0.60;1.00;;;;;;4444253;28;652583;-71
2021/12/03 05:47:10;;;;;;;11.57;4.10;;;-0.60;1.00;;;;;;4460717;28;651710;-70
2021/12/03 05:49:58;;;;;;;9.93;4.10;;;-0.70;1.00;;;;;;4429081;28;654117;-70
2021/12/03 05:52:46;;;;;;;9.10;3.93;;;-0.70;1.00;;;;;;4446690;28;651693;-70
2021/12/03 05:55:33;;;;;;;18.90;4.53;;;-0.70;1.00;;;;;;4451536;28;651542;-69
2021/12/03 05:58:21;;;;;;;11.37;3.53;;;-0.70;1.00;;;;;;4436997;28;652736;-70
2021/12/03 06:01:09;;;;;;;9.30;3.80;;;-0.70;1.00;;;;;;4463571;28;653750;-69
2021/12/03 06:03:58;;;;;;;9.87;4.10;;;-0.70;1.00;;;;;;4438125;28;652117;-70
2021/12/03 06:06:46;;;;;;;7.90;3.50;;;-0.70;1.00;;;;;;4425198;28;651226;-70
2021/12/03 06:09:34;;;;;;;8.57;4.07;;;-0.70;1.00;;;;;;4453493;28;651241;-70
2021/12/03 06:12:21;;;;;;;6.43;3.47;;;-0.80;1.00;;;;;;4414376;28;651225;-69
2021/12/03 06:15:09;;;;;;;10.13;3.90;;;-0.80;1.00;;;;;;4429729;28;652340;-68
2021/12/03 06:17:57;;;;;;;15.73;4.07;;;-0.80;1.00;;;;;;4408357;28;652969;-69
2021/12/03 06:20:46;;;;;;;14.97;3.57;;;-0.70;1.00;;;;;;4433240;28;652476;-69
2021/12/03 06:23:34;;;;;;;8.90;3.97;;;-0.70;1.00;;;;;;4394707;28;652664;-69
2021/12/03 06:26:22;;;;;;;12.23;3.97;;;-0.60;1.00;;;;;;4393298;28;651631;-70
2021/12/03 06:29:10;;;;;;;10.87;5.00;;;-0.60;1.00;;;;;;4417341;28;652470;-69
2021/12/03 06:31:58;;;;;;;11.43;4.35;;;-0.60;1.00;;;;;;4398552;28;653220;-70
2021/12/03 06:34:46;;;;;;;8.47;3.10;;;-0.60;1.00;;;;;;4401107;28;652309;-70
2021/12/03 06:37:35;;;;;;;11.20;4.90;;;-0.60;1.00;;;;;;4422983;28;651526;-69
2021/12/03 06:40:23;;;;;;;11.73;4.83;;;-0.60;1.00;;;;;;4385602;28;653364;-69
2021/12/03 06:43:11;;;;;;;12.70;4.80;;;-0.70;1.00;;;;;;4396184;28;652852;-70
2021/12/03 06:46:17;;;;;;;16.93;4.43;;;-0.70;1.00;;;;;;4417296;28;652967;-69
2021/12/03 06:49:05;;;;;;;8.23;3.60;;;-0.70;1.00;;;;;;4395147;28;652571;-69
2021/12/03 06:52:08;;;;;;;17.47;5.43;;;-0.60;1.00;;;;;;4390450;28;651802;-69
2021/12/03 06:54:59;;;;;;;17.53;5.63;;;-0.70;1.00;;;;;;4377019;28;652883;-70
2021/12/03 06:57:47;;;;;;;15.20;5.03;;;-0.70;1.00;;;;;;4394197;28;652924;-69
2021/12/03 07:00:35;;;;;;;10.03;2.67;;;-0.70;1.00;;;;;;4410580;28;652559;-70
2021/12/03 07:03:23;;;;;;;17.45;5.97;;;-0.70;1.00;;;;;;4390638;28;652987;-70
2021/12/03 07:06:10;;;;;;;15.17;5.60;;;-0.70;1.00;;;;;;4394515;28;652053;-70
2021/12/03 07:08:58;;;;;;;25.67;6.57;;;-0.70;1.00;;;;;;4416953;28;652486;-69
2021/12/03 07:11:47;;;;;;;13.97;4.77;;;-0.70;1.00;;;;;;4402565;28;653032;-70
2021/12/03 07:14:36;;;;;;;18.97;6.00;;;-0.70;1.00;;;;;;4427068;28;652274;-71
2021/12/03 07:17:24;;;;;;;16.97;6.00;;;-0.70;1.00;;;;;;4434354;28;653049;-69
2021/12/03 07:20:12;;;;;;;16.03;6.73;;;-0.70;1.00;;;;;;4415182;28;652405;-70
2021/12/03 07:22:59;;;;;;;17.90;6.70;;;-0.70;1.00;;;;;;4435875;28;652247;-69
2021/12/03 07:25:47;;;;;;;17.13;6.47;;;-0.80;1.00;;;;;;4407808;28;654033;-69
2021/12/03 07:28:36;;;;;;;17.40;6.00;;;-0.80;1.00;;;;;;4436412;28;652151;-69
2021/12/03 07:31:24;;;;;;;17.83;7.60;;;-0.80;1.00;;;;;;4411603;28;652326;-69
2021/12/03 07:34:14;;;;;;;17.53;7.20;;;-0.80;1.00;;;;;;4414520;28;652447;-69
2021/12/03 07:37:02;;;;;;;13.43;5.43;;;-0.80;1.00;;;;;;4417400;28;653365;-70
2021/12/03 07:39:49;;;;;;;11.97;5.50;;;-0.80;1.00;;;;;;4436906;28;652345;-69
2021/12/03 07:42:37;;;;;;;9.67;4.70;;;-0.80;1.00;;;;;;4417853;28;653043;-69
2021/12/03 07:45:26;;;;;;;10.23;3.70;;;-0.70;1.00;;;;;;4431738;28;651547;-68
2021/12/03 07:48:14;;;;;;;10.17;4.43;;;-0.70;1.00;;;;;;4414213;28;652678;-69
2021/12/03 07:51:02;;;;;;;15.50;5.10;;;-0.70;1.00;;;;;;4409464;28;652814;-74
2021/12/03 07:53:49;;;;;;;11.73;5.00;;;-0.70;1.00;;;;;;4440571;28;652649;-74
2021/12/03 07:56:37;;;;;;;9.07;4.23;;;-0.60;1.00;;;;;;4410276;28;652746;-69
2021/12/03 07:59:25;;;;;;;13.23;6.00;;;-0.70;1.00;;;;;;4441468;28;652451;-70
2021/12/03 08:02:14;;;;;;;14.33;6.07;;;-0.70;1.00;;;;;;4400811;28;653988;-69
2021/12/03 08:05:02;;;;;;;16.67;6.27;;;-0.70;1.00;;;;;;4413881;28;653469;-69
2021/12/03 08:07:51;;;;;;;12.10;5.03;;;-0.70;1.00;;;;;;4424003;28;653653;-70
2021/12/03 08:10:39;;;;;;;11.97;5.00;;;-0.70;1.00;;;;;;4435329;28;653607;-69
2021/12/03 08:13:26;;;;;;;13.57;4.95;;;-0.60;1.00;;;;;;4406204;28;653201;-70
2021/12/03 08:16:14;;;;;;;6.90;3.43;;;-0.70;1.00;;;;;;4435470;28;653231;-70
2021/12/03 08:19:03;;;;;;;12.00;4.77;;;-0.60;1.00;;;;;;4418086;28;652228;-69
2021/12/03 08:21:51;;;;;;;15.77;4.80;;;-0.60;1.00;;;;;;4411254;28;653307;-70
2021/12/03 08:24:38;;;;;;;9.60;4.30;;;-0.70;1.00;;;;;;4432368;28;654376;-69
2021/12/03 08:27:26;;;;;;;12.63;5.07;;;-0.70;1.00;;;;;;4415714;28;652433;-68
2021/12/03 08:30:17;;;;;;;9.50;4.10;;;-0.70;1.00;;;;;;4432217;28;654230;-69
2021/12/03 08:33:05;;;;;;;9.57;3.93;;;-0.70;1.00;;;;;;4411149;28;652432;-70
2021/12/03 08:35:54;;;;;;;12.57;4.73;;;-0.60;1.00;;;;;;4413294;28;652783;-69
2021/12/03 08:38:42;;;;;;;8.27;4.23;;;-0.70;1.00;;;;;;4414264;28;653640;-69
2021/12/03 08:41:30;;;;;;;10.40;4.93;;;-0.70;1.00;;;;;;4435801;28;652118;-69
2021/12/03 08:44:17;;;;;;;10.87;3.83;;;-0.60;1.00;;;;;;4408750;28;654583;-69
2021/12/03 08:47:07;;;;;;;9.87;4.03;;;-0.60;1.00;;;;;;4433424;28;653408;-70
2021/12/03 08:49:56;;;;;;;12.80;5.10;;;-0.60;1.00;;;;;;4430316;28;652629;-69
2021/12/03 08:55:49;;;;;;;6.03;3.37;;;-0.60;1.00;;;;;;4411226;28;653566;-69
2021/12/03 08:58:37;;;;;;;9.97;4.40;;;-0.50;1.00;;;;;;4420145;28;652453;-69
2021/12/03 09:01:25;;;;;;;9.03;4.13;;;-0.50;1.00;;;;;;4435149;28;652068;-69
2021/12/03 09:04:13;;;;;;;7.33;3.43;;;-0.50;1.00;;;;;;4413048;28;652757;-71
2021/12/03 09:07:01;;;;;;;13.23;4.33;;;-0.40;1.00;;;;;;4413764;28;652698;-70
2021/12/03 09:09:50;;;;;;;9.57;4.20;;;-0.40;1.00;;;;;;4431610;28;653537;-69
2021/12/03 09:12:38;;;;;;;10.83;4.87;;;-0.30;1.00;;;;;;4413690;28;652359;-69
2021/12/03 09:15:30;;;;;;;10.40;4.30;;;-0.30;1.00;;;;;;4416244;28;654397;-70
2021/12/03 09:18:26;;;;;;;12.30;4.90;;;-0.30;1.00;;;;;;4411583;28;653580;-69
2021/12/03 09:21:17;;;;;;;11.07;4.50;;;-0.30;1.00;;;;;;4415545;28;653836;-69
2021/12/03 09:24:11;;;;;;;10.10;3.23;;;-0.30;1.00;;;;;;4403925;28;653589;-69
2021/12/03 09:27:00;;;;;;;6.37;3.27;;;-0.20;1.00;;;;;;4410072;28;654560;-68
2021/12/03 09:29:49;;;;;;;7.55;2.65;;;-0.20;1.00;;;;;;4399882;28;654049;-69
2021/12/03 09:32:37;;;;;;;6.00;3.23;;;-0.10;1.00;;;;;;4413487;28;653222;-69
2021/12/03 09:35:26;;;;;;;8.23;3.40;;;-0.10;1.00;;;;;;4426158;28;652595;-69
2021/12/03 09:38:14;;;;;;;10.37;3.13;;;0.00;1.00;;;;;;4416939;28;652482;-69
2021/12/03 09:41:06;;;;;;;8.40;3.70;;;0.10;1.00;;;;;;4409448;28;652850;-70
2021/12/03 09:43:55;;;;;;;10.67;3.47;;;0.10;99.90;;;;;;4413465;28;651448;-69
2021/12/03 09:46:43;;;;;;;8.77;3.90;;;0.20;99.90;;;;;;4403609;28;654878;-69
2021/12/03 09:49:35;;;;;;;10.50;3.43;;;0.80;99.90;;;;;;4411716;28;652516;-70
2021/12/03 09:52:30;;;;;;;10.83;3.33;;;1.60;99.90;;;;;;4405708;28;655062;-71
2021/12/03 09:55:18;;;;;;;9.68;3.42;;;2.10;1.00;;;;;;4379254;28;656073;-68
2021/12/03 09:58:15;;;;;;;12.98;3.65;;;2.00;1.00;;;;;;4412882;28;652697;-72
2021/12/03 10:01:09;;;;;;;9.63;3.60;;;2.60;1.00;;;;;;4411840;28;653877;-71
2021/12/03 10:04:13;;;;;;;7.27;3.27;;;3.00;1.00;;;;;;4403054;28;652449;-75
2021/12/03 10:13:39;;;;;;;7.97;3.33;;;4.30;99.90;;;;;;4374318;28;653945;-75
2021/12/03 10:16:46;;;;;;;10.57;4.00;;;4.70;1.00;;;;;;4398500;28;653569;-75
2021/12/03 10:19:48;;;;;;;8.93;3.57;;;4.90;98.40;;;;;;4397103;28;654300;-75
2021/12/03 10:29:09;;;;;;;8.97;3.80;;;3.30;1.00;;;;;;4345165;28;653361;-71
2021/12/03 10:41:24;;;;;;;12.57;3.10;;;4.30;1.00;;;;;;4341703;28;654363;-71
2021/12/03 10:44:18;;;;;;;6.00;3.00;;;5.00;10.40;;;;;;4322330;28;654084;-70
2021/12/03 10:47:18;;;;;;;6.23;2.60;;;6.10;99.90;;;;;;4324084;28;653457;-71
2021/12/03 10:50:23;;;;;;;7.60;2.43;;;6.30;76.40;;;;;;4324820;28;654146;-71
2021/12/03 10:53:23;;;;;;;5.67;2.50;;;6.30;73.30;;;;;;4330114;28;653759;-72
2021/12/03 10:56:33;;;;;;;5.27;2.30;;;5.90;74.90;;;;;;4320788;28;653794;-75
2021/12/03 11:34:33;;;;;;;8.43;2.97;;;6.00;69.30;;;;;;4182209;29;650221;-69
2021/12/03 11:41:06;;;;;;;7.23;2.10;;;5.70;67.60;;;;;;4202838;29;650032;-71
2021/12/03 14:05:58;;;;;;;8.90;3.50;;;7.20;54.50;;;;;;4244860;29;652694;-69
2021/12/03 14:36:59;;;;;;;17.23;5.20;;;1.50;1.00;;;;;;4202003;29;652606;-71
2021/12/03 14:39:57;;;;;;;14.90;5.80;;;1.30;1.00;;;;;;4180353;29;652911;-70
2021/12/03 14:46:13;;;;;;;13.50;5.87;;;1.00;1.00;;;;;;4240732;29;652749;-70
2021/12/03 14:52:17;;;;;;;18.70;6.90;;;0.70;1.00;;;;;;4204762;29;652881;-70
2021/12/03 14:55:07;;;;;;;17.27;6.87;;;0.60;99.90;;;;;;4222381;29;652926;-69
2021/12/03 14:58:01;;;;;;;23.90;6.07;;;0.40;1.00;;;;;;4224182;29;653439;-71
2021/12/03 15:00:55;;;;;;;22.57;6.47;;;0.30;99.90;;;;;;4227363;29;653087;-70
2021/12/03 15:04:05;;;;;;;20.40;6.77;;;0.30;1.00;;;;;;4200443;29;654262;-70
2021/12/03 15:10:14;;;;;;;22.53;6.77;;;0.10;1.00;;;;;;4249812;29;652101;-69
2021/12/03 15:19:35;;;;;;;26.77;8.63;;;0.00;99.90;;;;;;4260236;29;653662;-70
2021/12/03 15:25:34;;;;;;;24.20;8.87;;;-0.20;99.90;;;;;;4282685;28;656167;-70
2021/12/03 15:41:02;;;;;;;26.93;7.77;;;-0.30;99.90;;;;;;4373565;28;654758;-70
2021/12/03 16:09:19;;;;;;;37.67;12.67;;;-0.60;1.00;;;;;;4391181;28;654741;-70
2021/12/03 16:12:13;;;;;;;33.10;13.13;;;-0.70;1.00;;;;;;4385178;28;655160;-69
2021/12/03 16:21:48;;;;;;;32.80;11.83;;;-0.80;1.00;;;;;;4349218;28;655047;-72
2021/12/03 16:52:25;;;;;;;40.07;13.60;;;-1.10;99.90;;;;;;4221385;29;656651;-69
2021/12/03 16:55:14;;;;;;;41.80;13.65;;;-1.10;99.90;;;;;;4221231;29;656902;-69
2021/12/03 16:58:02;;;;;;;35.93;12.20;;;-1.20;99.90;;;;;;4247117;29;656136;-69
2021/12/03 17:00:54;;;;;;;36.70;12.60;;;-1.20;99.90;;;;;;4272925;29;656458;-69
2021/12/03 17:03:48;;;;;;;35.93;12.90;;;-1.20;99.90;;;;;;4227190;29;657112;-69
2021/12/03 17:12:55;;;;;;;32.20;12.10;;;-1.10;99.90;;;;;;4304525;28;657307;-68
2021/12/03 17:19:45;;;;;;;27.73;10.82;;;-1.10;99.90;;;;;;4333722;28;657072;-69
2021/12/03 17:47:52;;;;;;;32.00;11.47;;;-1.20;99.90;;;;;;4263337;29;656486;-70
2021/12/03 17:53:57;;;;;;;32.00;10.70;;;-1.40;99.90;;;;;;4277833;29;657049;-69
2021/12/03 17:56:48;;;;;;;26.50;9.43;;;-1.50;99.90;;;;;;4266302;29;657234;-70
2021/12/03 17:59:40;;;;;;;25.05;9.88;;;-1.50;99.90;;;;;;4249105;29;656194;-70
2021/12/03 18:02:35;;;;;;;29.33;10.93;;;-1.50;99.90;;;;;;4270053;29;655843;-69
2021/12/03 18:08:33;;;;;;;28.33;12.17;;;-1.50;99.90;;;;;;4247747;29;657845;-68
2021/12/03 18:49:01;;;;;;;40.23;13.53;;;-1.70;69.70;;;;;;4220501;29;657211;-66
2021/12/03 18:51:58;;;;;;;32.37;11.57;;;-1.70;89.60;;;;;;4247338;29;658050;-64
2021/12/03 18:54:54;;;;;;;33.10;14.33;;;-1.70;59.80;;;;;;4243925;29;656444;-64
2021/12/03 18:57:44;;;;;;;40.70;14.17;;;-1.70;13.40;;;;;;4297497;29;656558;-64
2021/12/03 19:12:06;;;;;;;33.33;13.07;;;-1.70;1.00;;;;;;4231477;29;655226;-66
2021/12/03 19:14:56;;;;;;;39.00;13.93;;;-1.70;1.00;;;;;;4254404;29;656620;-64
2021/12/03 19:17:48;;;;;;;30.23;11.53;;;-1.80;1.00;;;;;;4256628;29;656710;-65
2021/12/03 19:20:40;;;;;;;30.67;12.30;;;-1.80;1.00;;;;;;4242612;29;655763;-65
2021/12/03 19:23:29;;;;;;;30.30;11.13;;;-1.80;1.00;;;;;;4250359;29;656109;-69
2021/12/03 19:26:17;;;;;;;27.37;10.83;;;-1.70;1.00;;;;;;4252742;29;656170;-70
2021/12/03 19:29:08;;;;;;;33.60;10.60;;;-1.50;99.90;;;;;;4299202;28;654530;-69
2021/12/03 19:32:31;;;;;;;26.27;9.17;;;-1.60;99.90;;;;;;4293106;28;656263;-70
2021/12/03 19:35:19;;;;;;;26.57;9.17;;;-1.70;99.90;;;;;;4323603;28;655737;-69
2021/12/03 19:38:08;;;;;;;34.20;11.10;;;-1.60;82.00;;;;;;4366042;28;656460;-69
2021/12/03 19:40:58;;;;;;;31.30;10.17;;;-1.60;1.00;;;;;;4400564;28;658018;-69
2021/12/03 19:43:49;;;;;;;25.50;10.10;;;-1.50;1.00;;;;;;4403035;28;655805;-70
2021/12/03 19:46:44;;;;;;;32.93;10.73;;;-1.60;1.00;;;;;;4405153;28;657328;-70
2021/12/03 19:49:43;;;;;;;29.00;9.57;;;-1.60;1.00;;;;;;4379520;28;656332;-69
2021/12/03 19:52:38;;;;;;;30.63;11.20;;;-1.70;99.90;;;;;;4401513;28;654664;-71
2021/12/03 19:55:27;;;;;;;27.57;9.97;;;-1.70;1.00;;;;;;4388459;28;656799;-70
2021/12/03 19:58:15;;;;;;;28.40;10.00;;;-1.60;1.00;;;;;;4429192;28;654397;-69
2021/12/03 20:01:04;;;;;;;28.97;8.73;;;-1.60;1.00;;;;;;4390280;28;656055;-69
2021/12/03 20:03:54;;;;;;;29.37;8.90;;;-1.60;1.00;;;;;;4402735;28;654293;-69
2021/12/03 20:06:43;;;;;;;30.20;10.23;;;-1.60;1.00;;;;;;4405596;28;654615;-70
2021/12/03 20:09:39;;;;;;;35.67;10.67;;;-1.60;99.90;;;;;;4400183;28;655237;-69
2021/12/03 20:12:29;;;;;;;32.87;10.53;;;-1.50;1.00;;;;;;4401247;28;656350;-70
2021/12/03 20:15:23;;;;;;;41.30;12.57;;;-1.50;1.00;;;;;;4402177;28;656756;-70
2021/12/03 20:18:20;;;;;;;36.47;12.27;;;-1.50;70.50;;;;;;4381713;28;655619;-70
2021/12/03 20:21:11;;;;;;;53.20;15.07;;;-1.40;82.50;;;;;;4399717;28;657125;-70
2021/12/03 20:24:17;;;;;;;39.30;12.30;;;-1.40;1.00;;;;;;4401179;28;656913;-70
2021/12/03 20:27:07;;;;;;;38.35;12.75;;;-1.40;99.90;;;;;;4400195;28;655747;-69
2021/12/03 20:29:57;;;;;;;33.90;11.60;;;-1.40;1.00;;;;;;4394746;28;656526;-69
2021/12/03 20:33:01;;;;;;;35.17;11.60;;;-1.30;99.90;;;;;;4406941;28;656725;-69
2021/12/03 20:36:03;;;;;;;34.20;11.03;;;-1.30;1.00;;;;;;4398328;28;656635;-69
2021/12/03 20:38:56;;;;;;;30.33;10.53;;;-1.30;1.00;;;;;;4376479;28;655177;-70
2021/12/03 20:41:50;;;;;;;36.53;9.00;;;-1.40;1.00;;;;;;4401672;28;656437;-69
2021/12/03 20:48:16;;;;;;;27.07;9.27;;;-1.50;99.90;;;;;;4343087;28;655370;-69
2021/12/03 20:51:18;;;;;;;28.13;9.63;;;-1.50;99.90;;;;;;4339361;28;656230;-70
2021/12/03 20:54:21;;;;;;;27.53;9.67;;;-1.60;99.90;;;;;;4324871;28;655982;-69
2021/12/03 20:57:21;;;;;;;27.53;8.90;;;-1.60;1.00;;;;;;4343878;28;655306;-69
2021/12/03 21:09:58;;;;;;;26.53;8.50;;;-1.40;1.00;;;;;;4308872;29;655351;-70
2021/12/03 21:13:12;;;;;;;25.23;8.53;;;-1.40;1.00;;;;;;4305662;28;654798;-69
2021/12/03 21:16:09;;;;;;;28.53;8.50;;;-1.30;99.90;;;;;;4299720;29;654527;-69
2021/12/03 21:19:13;;;;;;;34.93;10.03;;;-1.30;99.90;;;;;;4306111;28;655774;-69
2021/12/03 21:22:07;;;;;;;23.07;8.13;;;-1.20;99.90;;;;;;4273332;28;656725;-71
2021/12/03 21:25:01;;;;;;;27.70;8.63;;;-1.20;1.00;;;;;;4326485;28;655642;-70
2021/12/03 21:27:55;;;;;;;23.43;8.27;;;-1.10;1.00;;;;;;4352015;28;655598;-70
2021/12/03 21:30:49;;;;;;;22.77;8.27;;;-1.10;1.00;;;;;;4347366;28;654954;-70
2021/12/03 21:40:03;;;;;;;23.20;7.93;;;-1.00;99.90;;;;;;4360813;28;656597;-69
2021/12/03 21:42:53;;;;;;;28.13;8.30;;;-0.90;1.00;;;;;;4374342;28;655407;-70
2021/12/03 21:45:41;;;;;;;23.97;7.17;;;-0.90;1.00;;;;;;4405579;28;654809;-70
2021/12/03 21:48:29;;;;;;;25.90;8.20;;;-0.90;1.00;;;;;;4418343;28;655378;-69
2021/12/03 21:51:17;;;;;;;23.13;7.70;;;-0.90;1.00;;;;;;4406207;28;654590;-70
2021/12/03 21:54:05;;;;;;;23.95;8.23;;;-0.90;1.00;;;;;;4416959;28;654688;-69
2021/12/03 21:56:59;;;;;;;24.13;8.13;;;-0.90;1.00;;;;;;4402778;28;655645;-69